Time;durP1;ratioP1;P1;durP2;ratioP2;P2;SDS_P1;SDS_P2;PMS_P1;PMS_P2;Temp;Humidity;BMP_temperature;BMP_pressure;BME280_temperature;BME280_humidity;BME280_pressure;Samples;Min_cycle;Max_cycle;Signal;HPM_P1;HPM_P2
2022/03/09 00:00:50;;;;;;;9.93;5.30;;;2.70;99.90;;;;;;5042110;28;20048;-59
2022/03/09 00:03:16;;;;;;;7.55;5.03;;;2.70;99.90;;;;;;5024431;28;20052;-58
2022/03/09 00:05:42;;;;;;;6.95;4.97;;;2.60;99.90;;;;;;5040137;28;20068;-57
2022/03/09 00:08:08;;;;;;;8.15;5.05;;;2.60;99.90;;;;;;5054350;28;20084;-57
2022/03/09 00:10:34;;;;;;;8.55;5.07;;;2.60;99.90;;;;;;5008437;28;20045;-57
2022/03/09 00:13:00;;;;;;;7.57;4.90;;;2.60;99.90;;;;;;5041595;28;20087;-58
2022/03/09 00:15:27;;;;;;;7.35;5.18;;;2.60;99.90;;;;;;5040859;28;20041;-58
2022/03/09 00:17:53;;;;;;;9.52;5.38;;;2.50;99.90;;;;;;5040405;28;20534;-58
2022/03/09 00:20:19;;;;;;;7.35;5.10;;;2.50;99.90;;;;;;5042481;28;20068;-57
2022/03/09 00:22:45;;;;;;;8.05;5.43;;;2.40;99.90;;;;;;5040404;28;20053;-58
2022/03/09 00:25:11;;;;;;;7.70;5.43;;;2.40;99.90;;;;;;5006455;28;20060;-57
2022/03/09 00:27:37;;;;;;;8.27;5.63;;;2.30;99.90;;;;;;5045381;28;20052;-57
2022/03/09 00:30:05;;;;;;;9.25;5.60;;;2.30;99.90;;;;;;5040821;28;20084;-58
2022/03/09 00:32:31;;;;;;;8.25;5.65;;;2.20;99.90;;;;;;5044960;28;20098;-58
2022/03/09 00:34:57;;;;;;;8.25;5.25;;;2.20;99.90;;;;;;5043995;28;20124;-58
2022/03/09 00:37:23;;;;;;;10.27;5.10;;;2.20;99.90;;;;;;5028102;28;20040;-58
2022/03/09 00:39:49;;;;;;;12.27;5.88;;;2.10;99.90;;;;;;5024519;28;20550;-59
2022/03/09 00:42:15;;;;;;;9.15;6.00;;;2.20;99.90;;;;;;5042313;28;20121;-58
2022/03/09 00:44:41;;;;;;;7.55;5.55;;;2.10;99.90;;;;;;5046220;28;20045;-59
2022/03/09 00:47:08;;;;;;;9.10;6.00;;;2.10;99.90;;;;;;5042650;28;20504;-58
2022/03/09 00:49:34;;;;;;;9.95;6.22;;;2.00;99.90;;;;;;5042458;28;20102;-57
2022/03/09 00:52:00;;;;;;;7.80;5.47;;;2.00;99.90;;;;;;5026195;28;20068;-58
2022/03/09 00:54:26;;;;;;;10.25;6.03;;;2.00;99.90;;;;;;5042404;28;20053;-59
2022/03/09 00:56:53;;;;;;;8.43;5.95;;;2.00;99.90;;;;;;5043309;28;20052;-60
2022/03/09 00:59:20;;;;;;;8.43;5.85;;;1.90;99.90;;;;;;5042581;28;20412;-59
2022/03/09 01:01:46;;;;;;;11.15;6.57;;;1.90;99.90;;;;;;5043878;28;20056;-59
2022/03/09 01:04:12;;;;;;;10.70;5.90;;;1.90;99.90;;;;;;5041600;28;20045;-59
2022/03/09 01:06:39;;;;;;;7.80;5.85;;;1.80;99.90;;;;;;5044218;28;20171;-59
2022/03/09 01:09:05;;;;;;;8.93;5.65;;;1.80;99.90;;;;;;5042804;28;20083;-59
2022/03/09 01:11:31;;;;;;;8.48;6.00;;;1.80;99.90;;;;;;5044007;28;20052;-58
2022/03/09 01:13:57;;;;;;;8.02;5.85;;;1.80;99.90;;;;;;5043247;28;20049;-58
2022/03/09 01:16:24;;;;;;;8.80;6.57;;;1.80;99.90;;;;;;5058703;28;20703;-59
2022/03/09 01:18:50;;;;;;;8.90;5.32;;;1.80;99.90;;;;;;5043003;28;20073;-59
2022/03/09 01:21:16;;;;;;;9.48;6.07;;;1.80;99.90;;;;;;5043121;28;20091;-58
2022/03/09 01:23:42;;;;;;;11.88;6.78;;;1.80;99.90;;;;;;5025299;28;20055;-58
2022/03/09 01:26:08;;;;;;;7.72;5.47;;;1.80;99.90;;;;;;5041889;28;20051;-58
2022/03/09 01:28:34;;;;;;;8.60;5.82;;;1.80;99.90;;;;;;5043249;28;20175;-59
2022/03/09 01:31:01;;;;;;;8.32;6.20;;;1.70;99.90;;;;;;5046175;28;20057;-58
2022/03/09 01:33:27;;;;;;;8.60;6.18;;;1.70;99.90;;;;;;5047391;28;20049;-58
2022/03/09 01:35:53;;;;;;;8.00;6.18;;;1.70;99.90;;;;;;5043614;28;20175;-59
2022/03/09 01:38:19;;;;;;;8.60;6.40;;;1.70;99.90;;;;;;5043317;28;20056;-58
2022/03/09 01:40:45;;;;;;;10.05;6.60;;;1.60;99.90;;;;;;5025329;28;20531;-59
2022/03/09 01:43:14;;;;;;;8.18;6.47;;;1.50;99.90;;;;;;5043253;28;20156;-58
2022/03/09 01:45:40;;;;;;;11.20;6.75;;;1.50;99.90;;;;;;5039204;28;20056;-57
2022/03/09 01:48:06;;;;;;;11.38;6.53;;;1.50;99.90;;;;;;5041848;28;20045;-59
2022/03/09 01:50:32;;;;;;;10.23;6.78;;;1.50;99.90;;;;;;5043556;28;20049;-59
2022/03/09 01:52:59;;;;;;;9.45;7.15;;;1.50;99.90;;;;;;5045704;28;20049;-58
2022/03/09 01:55:25;;;;;;;9.23;7.00;;;1.50;99.90;;;;;;5041756;28;20361;-58
2022/03/09 01:57:51;;;;;;;8.93;6.43;;;1.40;99.90;;;;;;5043014;28;20081;-58
2022/03/09 02:00:18;;;;;;;9.55;6.45;;;1.40;99.90;;;;;;5043443;28;20052;-59
2022/03/09 02:02:44;;;;;;;9.52;6.40;;;1.40;99.90;;;;;;5042544;28;20040;-58
2022/03/09 02:05:10;;;;;;;11.75;6.78;;;1.40;99.90;;;;;;5056828;28;20143;-59
2022/03/09 02:10:23;;;;;;;8.00;6.72;;;1.40;99.90;;;;;;5042625;28;20048;-58
2022/03/09 02:12:49;;;;;;;11.13;6.45;;;1.30;99.90;;;;;;5042742;28;20059;-58
2022/03/09 02:15:15;;;;;;;12.15;7.05;;;1.30;99.90;;;;;;5041725;28;20212;-58
2022/03/09 02:17:41;;;;;;;10.30;6.85;;;1.30;99.90;;;;;;5043485;28;20045;-58
2022/03/09 02:20:08;;;;;;;9.85;6.78;;;1.30;99.90;;;;;;5041165;28;20073;-58
2022/03/09 02:22:42;;;;;;;9.43;6.63;;;1.30;99.90;;;;;;5044199;28;20033;-58
2022/03/09 02:25:13;;;;;;;8.75;6.70;;;1.20;99.90;;;;;;5043359;28;21568;-58
2022/03/09 02:27:41;;;;;;;10.93;7.43;;;1.20;99.90;;;;;;5023182;28;20037;-58
2022/03/09 02:30:09;;;;;;;9.18;6.85;;;1.20;99.90;;;;;;5042978;28;20303;-58
2022/03/09 02:32:47;;;;;;;10.13;7.55;;;1.30;99.90;;;;;;5042873;28;20059;-58
2022/03/09 02:35:14;;;;;;;9.77;7.20;;;1.20;99.90;;;;;;5041610;28;20053;-58
2022/03/09 02:37:41;;;;;;;12.75;7.38;;;1.20;99.90;;;;;;5041205;28;20075;-58
2022/03/09 02:40:10;;;;;;;8.73;6.30;;;1.20;99.90;;;;;;5042419;28;20398;-58
2022/03/09 02:42:37;;;;;;;12.23;7.72;;;1.20;99.90;;;;;;5043072;28;20505;-58
2022/03/09 02:45:05;;;;;;;11.40;6.38;;;1.20;99.90;;;;;;5040302;28;20049;-58
2022/03/09 02:47:31;;;;;;;10.50;7.63;;;1.20;99.90;;;;;;5040928;28;20053;-58
2022/03/09 02:49:58;;;;;;;9.70;7.55;;;1.20;99.90;;;;;;5006909;28;20060;-58
2022/03/09 02:52:24;;;;;;;12.05;7.90;;;1.30;99.90;;;;;;5040733;28;20059;-58
2022/03/09 02:54:51;;;;;;;11.13;7.47;;;1.20;99.90;;;;;;5042451;28;20049;-58
2022/03/09 02:57:17;;;;;;;11.32;7.43;;;1.20;99.90;;;;;;5041204;28;20508;-58
2022/03/09 02:59:44;;;;;;;10.48;7.47;;;1.20;99.90;;;;;;5039477;28;20061;-59
2022/03/09 03:02:10;;;;;;;12.43;8.50;;;1.20;99.90;;;;;;5007319;28;20508;-58
2022/03/09 03:04:36;;;;;;;13.40;7.95;;;1.10;99.90;;;;;;5001995;28;20045;-58
2022/03/09 03:07:02;;;;;;;13.20;8.63;;;1.20;99.90;;;;;;5041514;28;20052;-58
2022/03/09 03:09:28;;;;;;;11.20;7.78;;;1.10;99.90;;;;;;5042330;28;20049;-57
2022/03/09 03:11:54;;;;;;;11.48;7.25;;;1.10;99.90;;;;;;5024349;28;20041;-58
2022/03/09 03:14:20;;;;;;;10.43;7.82;;;1.10;99.90;;;;;;5040397;28;20873;-57
2022/03/09 03:16:46;;;;;;;13.07;7.70;;;1.10;99.90;;;;;;5025553;28;20079;-57
2022/03/09 03:19:12;;;;;;;14.75;7.78;;;1.00;99.90;;;;;;5038097;28;20052;-58
2022/03/09 03:21:39;;;;;;;12.23;8.57;;;1.00;99.90;;;;;;5057680;28;20048;-57
2022/03/09 03:24:06;;;;;;;13.50;8.45;;;1.00;99.90;;;;;;5042727;28;20128;-57
2022/03/09 03:26:32;;;;;;;11.40;7.97;;;0.90;99.90;;;;;;5040534;28;20049;-57
2022/03/09 03:28:58;;;;;;;10.55;7.97;;;0.90;99.90;;;;;;5023366;28;20053;-58
2022/03/09 03:31:24;;;;;;;10.70;7.57;;;0.90;99.90;;;;;;5040925;28;20206;-57
2022/03/09 03:33:50;;;;;;;10.88;7.38;;;0.90;99.90;;;;;;5041855;28;20528;-57
2022/03/09 03:36:17;;;;;;;12.05;8.15;;;0.90;99.90;;;;;;5039943;28;20045;-58
2022/03/09 03:38:44;;;;;;;12.18;8.15;;;0.90;99.90;;;;;;5057425;28;20514;-58
2022/03/09 03:41:10;;;;;;;10.70;7.70;;;0.80;99.90;;;;;;5037984;28;20049;-59
2022/03/09 03:43:36;;;;;;;10.77;7.80;;;0.80;99.90;;;;;;5041094;28;20110;-57
2022/03/09 03:46:02;;;;;;;12.05;8.20;;;0.80;99.90;;;;;;5024637;28;20049;-57
2022/03/09 03:48:28;;;;;;;11.75;8.20;;;0.90;99.90;;;;;;5008353;28;20622;-57
2022/03/09 03:50:54;;;;;;;11.95;7.85;;;0.90;99.90;;;;;;5041424;28;20080;-57
2022/03/09 03:53:20;;;;;;;12.52;8.82;;;0.80;99.90;;;;;;5010371;28;20135;-57
2022/03/09 03:55:46;;;;;;;12.82;8.07;;;0.80;99.90;;;;;;5041963;28;20075;-58
2022/03/09 03:58:13;;;;;;;10.05;7.70;;;0.80;99.90;;;;;;5021567;28;20094;-57
2022/03/09 04:00:39;;;;;;;10.55;6.97;;;0.70;99.90;;;;;;5042575;28;20098;-58
2022/03/09 04:03:06;;;;;;;12.35;8.57;;;0.70;99.90;;;;;;5048043;28;20044;-58
2022/03/09 04:05:32;;;;;;;11.05;8.18;;;0.70;99.90;;;;;;5027780;28;20485;-58
2022/03/09 04:07:58;;;;;;;11.30;7.53;;;0.60;99.90;;;;;;5029217;28;20111;-58
2022/03/09 04:10:24;;;;;;;10.75;7.90;;;0.60;99.90;;;;;;5046856;28;20041;-58
2022/03/09 04:12:50;;;;;;;14.55;9.07;;;0.60;99.90;;;;;;5027189;28;20056;-58
2022/03/09 04:15:17;;;;;;;13.63;8.93;;;0.60;99.90;;;;;;5046159;28;20096;-58
2022/03/09 04:17:45;;;;;;;13.93;8.98;;;0.60;99.90;;;;;;5029583;28;20055;-58
2022/03/09 04:20:12;;;;;;;12.55;8.80;;;0.60;99.90;;;;;;5047659;28;20037;-58
2022/03/09 04:22:39;;;;;;;13.43;8.10;;;0.60;99.90;;;;;;5028032;28;20060;-58
2022/03/09 04:25:07;;;;;;;10.52;7.57;;;0.50;99.90;;;;;;5029726;28;20412;-58
2022/03/09 04:27:33;;;;;;;13.27;8.05;;;0.50;99.90;;;;;;5046871;28;20083;-58
2022/03/09 04:30:00;;;;;;;13.68;8.55;;;0.50;99.90;;;;;;5046742;28;20106;-59
2022/03/09 04:32:26;;;;;;;10.13;8.20;;;0.50;99.90;;;;;;5048819;28;20589;-59
2022/03/09 04:34:53;;;;;;;13.50;8.75;;;0.50;99.90;;;;;;5047806;28;20053;-59
2022/03/09 04:37:19;;;;;;;10.57;8.15;;;0.50;99.90;;;;;;5046376;28;20045;-58
2022/03/09 04:39:46;;;;;;;12.40;8.93;;;0.60;99.90;;;;;;5048491;28;20045;-59
2022/03/09 04:42:13;;;;;;;11.93;9.23;;;0.50;99.90;;;;;;5049397;28;20079;-59
2022/03/09 04:44:39;;;;;;;13.63;9.68;;;0.50;99.90;;;;;;5047209;28;20106;-58
2022/03/09 04:47:05;;;;;;;11.85;8.48;;;0.50;99.90;;;;;;5048181;28;21441;-58
2022/03/09 04:49:31;;;;;;;12.50;9.23;;;0.50;99.90;;;;;;5037102;28;20081;-58
2022/03/09 04:51:58;;;;;;;13.07;9.20;;;0.40;99.90;;;;;;5047012;28;20140;-59
2022/03/09 04:54:24;;;;;;;13.23;8.73;;;0.40;99.90;;;;;;5047498;28;20480;-58
2022/03/09 04:56:50;;;;;;;11.38;8.85;;;0.30;99.90;;;;;;5049092;28;20539;-58
2022/03/09 04:59:17;;;;;;;12.43;9.35;;;0.20;99.90;;;;;;5049818;28;20430;-58
2022/03/09 05:01:43;;;;;;;12.85;9.85;;;0.20;99.90;;;;;;5046098;28;20480;-58
2022/03/09 05:04:09;;;;;;;14.73;9.15;;;0.20;99.90;;;;;;5012034;28;20045;-58
2022/03/09 05:06:36;;;;;;;13.77;8.88;;;0.10;99.90;;;;;;5046361;28;20190;-58
2022/03/09 05:09:02;;;;;;;13.82;9.27;;;0.10;99.90;;;;;;5046785;28;20121;-58
2022/03/09 05:11:28;;;;;;;13.10;9.38;;;0.00;99.90;;;;;;5046309;28;20049;-58
2022/03/09 05:13:54;;;;;;;15.60;9.70;;;0.00;99.90;;;;;;5045126;28;20703;-59
2022/03/09 05:16:22;;;;;;;12.43;9.18;;;0.00;99.90;;;;;;5043766;28;20446;-58
2022/03/09 05:18:48;;;;;;;13.57;8.95;;;0.00;99.90;;;;;;5042767;28;20122;-58
2022/03/09 05:21:14;;;;;;;12.35;9.27;;;0.10;99.90;;;;;;5045065;28;20041;-58
2022/03/09 05:23:41;;;;;;;12.20;8.10;;;0.10;99.90;;;;;;5043252;28;20116;-58
2022/03/09 05:26:07;;;;;;;11.13;8.25;;;0.10;99.90;;;;;;5044622;28;20053;-58
2022/03/09 05:28:34;;;;;;;11.68;8.57;;;0.00;99.90;;;;;;5042986;28;20056;-59
2022/03/09 05:31:00;;;;;;;13.40;9.32;;;0.10;99.90;;;;;;5041605;28;20063;-58
2022/03/09 05:33:26;;;;;;;13.05;9.20;;;0.00;99.90;;;;;;5045106;28;20044;-58
2022/03/09 05:35:52;;;;;;;14.10;9.25;;;0.00;99.90;;;;;;5043406;28;20049;-58
2022/03/09 05:38:20;;;;;;;15.70;9.13;;;0.00;99.90;;;;;;5041895;28;20048;-58
2022/03/09 05:40:46;;;;;;;17.33;9.07;;;0.00;99.90;;;;;;5045414;28;20531;-58
2022/03/09 05:43:12;;;;;;;17.15;8.98;;;0.00;99.90;;;;;;5041269;28;20698;-58
2022/03/09 05:45:39;;;;;;;13.05;9.50;;;0.00;99.90;;;;;;5041598;28;20400;-58
2022/03/09 05:48:05;;;;;;;14.02;9.25;;;0.00;99.90;;;;;;5044211;28;20083;-57
2022/03/09 05:50:31;;;;;;;14.23;9.23;;;0.00;99.90;;;;;;5044489;28;20144;-59
2022/03/09 05:52:57;;;;;;;12.77;8.75;;;0.00;99.90;;;;;;5043221;28;20114;-58
2022/03/09 05:55:24;;;;;;;15.23;9.52;;;0.00;99.90;;;;;;5044235;28;20053;-58
2022/03/09 05:57:50;;;;;;;13.73;9.02;;;0.00;99.90;;;;;;5043039;28;20056;-58
2022/03/09 06:00:17;;;;;;;14.20;9.02;;;0.00;99.90;;;;;;5043355;28;20055;-58
2022/03/09 06:02:44;;;;;;;13.65;9.00;;;0.00;99.90;;;;;;5025017;28;20049;-58
2022/03/09 06:05:10;;;;;;;12.32;8.73;;;0.00;99.90;;;;;;5041636;28;20067;-58
2022/03/09 06:07:36;;;;;;;11.63;8.45;;;0.00;99.90;;;;;;5043157;28;20125;-57
2022/03/09 06:10:03;;;;;;;12.85;8.57;;;0.00;99.90;;;;;;5043614;28;20738;-57
2022/03/09 06:12:29;;;;;;;11.82;8.48;;;0.00;99.90;;;;;;5045934;28;20520;-58
2022/03/09 06:14:56;;;;;;;11.23;8.65;;;0.00;99.90;;;;;;5045410;28;20064;-58
2022/03/09 06:17:22;;;;;;;12.93;8.65;;;0.00;99.90;;;;;;5043647;28;20048;-58
2022/03/09 06:19:48;;;;;;;14.13;9.32;;;-0.10;99.90;;;;;;5044595;28;20094;-58
2022/03/09 06:22:14;;;;;;;13.55;9.55;;;-0.10;99.90;;;;;;5043213;28;20662;-60
2022/03/09 06:24:40;;;;;;;14.13;9.48;;;-0.10;99.90;;;;;;5050148;28;20520;-58
2022/03/09 06:27:06;;;;;;;13.98;8.90;;;-0.10;99.90;;;;;;5046823;28;20136;-58
2022/03/09 06:29:32;;;;;;;12.23;9.32;;;-0.10;99.90;;;;;;5036177;28;20083;-58
2022/03/09 06:32:00;;;;;;;13.40;9.68;;;-0.10;99.90;;;;;;5024213;28;20095;-59
2022/03/09 06:34:27;;;;;;;14.90;9.88;;;-0.10;99.90;;;;;;5060362;28;20108;-58
2022/03/09 06:36:53;;;;;;;14.02;8.88;;;0.00;99.90;;;;;;5038980;28;20049;-58
2022/03/09 06:39:20;;;;;;;12.07;8.35;;;0.00;99.90;;;;;;5042416;28;20048;-58
2022/03/09 06:41:47;;;;;;;13.63;8.13;;;0.10;99.90;;;;;;5026744;28;20549;-58
2022/03/09 06:44:14;;;;;;;12.73;8.35;;;0.10;99.90;;;;;;5037743;28;20438;-58
2022/03/09 06:46:41;;;;;;;13.20;9.02;;;0.20;99.90;;;;;;5060378;28;20052;-58
2022/03/09 06:49:07;;;;;;;13.68;8.48;;;0.30;99.90;;;;;;5043534;28;20057;-59
2022/03/09 06:51:33;;;;;;;13.43;8.98;;;0.50;99.90;;;;;;5044004;28;20045;-58
2022/03/09 06:53:59;;;;;;;14.35;9.43;;;0.50;99.90;;;;;;5039556;28;20084;-57
2022/03/09 06:56:26;;;;;;;13.52;8.30;;;0.60;99.90;;;;;;5035859;28;20044;-59
2022/03/09 06:58:52;;;;;;;12.18;8.00;;;0.60;99.90;;;;;;5034166;28;20077;-58
2022/03/09 07:01:18;;;;;;;13.77;9.00;;;0.70;99.90;;;;;;5054188;28;20044;-58
2022/03/09 07:03:44;;;;;;;12.48;8.85;;;0.80;99.90;;;;;;5038528;28;20080;-59
2022/03/09 07:06:11;;;;;;;13.27;8.93;;;0.90;99.90;;;;;;5023705;28;20508;-58
2022/03/09 07:08:37;;;;;;;12.93;8.18;;;1.00;99.90;;;;;;5042757;28;20076;-58
2022/03/09 07:11:04;;;;;;;13.85;8.32;;;1.10;99.90;;;;;;5043997;28;20048;-58
2022/03/09 07:13:30;;;;;;;13.63;9.27;;;1.20;99.90;;;;;;5043132;28;20051;-58
2022/03/09 07:15:56;;;;;;;15.82;8.32;;;1.50;99.90;;;;;;5055792;28;20182;-58
2022/03/09 07:18:22;;;;;;;11.05;7.82;;;1.70;99.90;;;;;;5042496;28;20060;-59
2022/03/09 07:20:48;;;;;;;12.88;8.27;;;2.00;99.90;;;;;;5036235;28;20084;-58
2022/03/09 07:23:14;;;;;;;10.50;7.57;;;2.30;99.90;;;;;;5044219;28;20055;-59
2022/03/09 07:25:42;;;;;;;10.43;7.80;;;2.70;99.90;;;;;;5044609;28;20051;-58
2022/03/09 07:28:08;;;;;;;12.15;9.25;;;3.00;99.90;;;;;;5036122;28;20049;-58
2022/03/09 07:30:35;;;;;;;10.68;8.15;;;3.30;99.90;;;;;;5032304;28;20518;-58
2022/03/09 07:33:01;;;;;;;10.43;8.00;;;3.70;99.90;;;;;;5040638;28;20037;-59
2022/03/09 07:35:27;;;;;;;12.27;8.20;;;4.00;99.90;;;;;;5041320;28;20049;-58
2022/03/09 07:37:53;;;;;;;10.10;8.18;;;4.40;99.90;;;;;;5010443;28;20060;-59
2022/03/09 07:40:20;;;;;;;11.93;8.93;;;4.60;99.90;;;;;;5043089;28;20096;-58
2022/03/09 07:42:47;;;;;;;11.55;7.78;;;4.90;99.90;;;;;;5054049;28;20157;-59
2022/03/09 07:45:13;;;;;;;11.10;8.27;;;5.20;99.90;;;;;;5043439;28;20076;-58
2022/03/09 07:47:41;;;;;;;11.05;8.40;;;5.60;99.90;;;;;;5037666;28;20068;-58
2022/03/09 07:50:08;;;;;;;9.35;8.05;;;5.90;99.90;;;;;;5015383;28;20575;-58
2022/03/09 07:52:35;;;;;;;11.43;8.00;;;6.30;99.90;;;;;;5021841;28;20049;-58
2022/03/09 07:55:01;;;;;;;9.43;7.43;;;6.70;99.90;;;;;;5021008;28;20124;-57
2022/03/09 07:57:27;;;;;;;10.55;7.93;;;7.20;99.90;;;;;;5043438;28;20049;-56
2022/03/09 07:59:54;;;;;;;12.80;8.07;;;7.60;99.90;;;;;;5024065;28;20139;-56
2022/03/09 08:02:20;;;;;;;12.52;8.95;;;7.90;99.90;;;;;;5040755;28;20059;-56
2022/03/09 08:04:46;;;;;;;12.63;8.45;;;8.00;92.30;;;;;;5041976;28;20147;-56
2022/03/09 08:07:12;;;;;;;9.63;7.65;;;8.20;84.00;;;;;;5034810;28;20057;-57
2022/03/09 08:09:38;;;;;;;10.07;8.00;;;8.30;80.10;;;;;;5041894;28;20053;-56
2022/03/09 08:12:05;;;;;;;9.60;7.70;;;8.40;74.20;;;;;;5024544;28;20052;-56
2022/03/09 08:14:31;;;;;;;11.68;8.55;;;8.60;67.70;;;;;;5041893;28;20052;-56
2022/03/09 08:16:57;;;;;;;8.75;7.20;;;8.90;65.50;;;;;;5006812;28;20084;-56
2022/03/09 08:19:23;;;;;;;10.32;7.55;;;9.10;61.20;;;;;;5003376;28;20045;-56
2022/03/09 08:21:50;;;;;;;12.43;8.07;;;9.30;61.20;;;;;;5040989;28;20053;-58
2022/03/09 08:24:16;;;;;;;12.75;9.13;;;9.40;59.40;;;;;;5032945;28;20044;-57
2022/03/09 08:26:42;;;;;;;11.27;7.25;;;9.50;58.40;;;;;;5043917;28;20084;-58
2022/03/09 08:29:08;;;;;;;10.13;8.10;;;9.70;58.00;;;;;;5038775;28;20131;-58
2022/03/09 08:31:34;;;;;;;9.35;7.75;;;9.90;56.20;;;;;;5044216;28;20119;-58
2022/03/09 08:34:00;;;;;;;10.65;8.05;;;10.00;55.90;;;;;;5042858;28;20049;-58
2022/03/09 08:36:26;;;;;;;10.50;7.43;;;10.30;54.00;;;;;;5042518;28;20936;-57
2022/03/09 08:38:54;;;;;;;9.80;7.55;;;10.40;54.60;;;;;;5042800;28;20128;-58
2022/03/09 08:41:25;;;;;;;10.40;7.32;;;10.60;52.90;;;;;;5039783;28;20049;-58
2022/03/09 08:43:51;;;;;;;13.20;8.15;;;10.60;52.20;;;;;;5037540;28;20045;-59
2022/03/09 08:46:17;;;;;;;10.98;8.15;;;10.80;51.20;;;;;;5042883;28;20499;-60
2022/03/09 08:48:45;;;;;;;10.65;7.68;;;11.00;50.10;;;;;;5044494;28;20079;-61
2022/03/09 08:51:12;;;;;;;10.63;7.93;;;11.20;50.20;;;;;;5041961;28;20048;-60
2022/03/09 08:53:41;;;;;;;10.98;8.35;;;11.50;49.80;;;;;;5023355;28;20060;-62
2022/03/09 08:56:07;;;;;;;8.80;7.25;;;11.80;49.70;;;;;;5011820;28;20118;-61
2022/03/09 08:58:35;;;;;;;10.50;7.90;;;11.90;47.30;;;;;;5043828;28;20045;-60
2022/03/09 09:01:02;;;;;;;8.57;7.35;;;11.80;47.90;;;;;;5030070;28;20071;-59
2022/03/09 09:03:28;;;;;;;10.57;7.32;;;11.80;47.50;;;;;;5046407;28;20034;-60
2022/03/09 09:05:55;;;;;;;9.63;7.78;;;12.30;48.40;;;;;;5046855;28;20468;-60
2022/03/09 09:08:21;;;;;;;10.27;8.27;;;12.20;47.10;;;;;;5046159;28;20565;-60
2022/03/09 09:10:48;;;;;;;9.13;8.07;;;12.10;46.70;;;;;;5029127;28;20691;-60
2022/03/09 09:13:15;;;;;;;8.63;7.10;;;12.30;46.80;;;;;;5048501;28;20047;-61
2022/03/09 09:15:41;;;;;;;8.88;7.63;;;12.40;46.10;;;;;;5045495;28;20041;-60
2022/03/09 09:18:08;;;;;;;8.82;7.90;;;12.60;46.30;;;;;;5047552;28;20107;-60
2022/03/09 09:20:35;;;;;;;10.43;7.55;;;13.00;46.10;;;;;;5045024;28;20049;-61
2022/03/09 09:23:02;;;;;;;9.90;7.22;;;12.90;44.50;;;;;;5027459;28;20063;-61
2022/03/09 09:25:29;;;;;;;9.93;7.43;;;13.10;45.10;;;;;;5045611;28;20875;-59
2022/03/09 09:27:57;;;;;;;10.35;7.40;;;13.30;44.50;;;;;;5046761;28;20064;-58
2022/03/09 09:30:24;;;;;;;9.43;7.82;;;13.40;44.30;;;;;;5046751;28;20134;-61
2022/03/09 09:32:50;;;;;;;10.13;7.15;;;13.80;44.20;;;;;;5030591;28;20037;-61
2022/03/09 09:35:17;;;;;;;10.20;7.85;;;14.00;41.60;;;;;;5047655;28;20037;-57
2022/03/09 09:37:45;;;;;;;10.35;7.63;;;14.10;41.70;;;;;;5043414;28;20048;-60
2022/03/09 09:40:13;;;;;;;11.07;8.18;;;14.00;41.50;;;;;;5041090;28;20044;-60
2022/03/09 09:42:40;;;;;;;9.98;7.32;;;14.20;41.00;;;;;;5031736;28;20048;-56
2022/03/09 09:45:07;;;;;;;9.68;7.75;;;14.30;41.90;;;;;;5041468;28;20053;-56
2022/03/09 09:47:34;;;;;;;9.63;7.40;;;14.70;40.20;;;;;;5042722;28;20416;-56
2022/03/09 09:50:06;;;;;;;8.90;7.28;;;14.60;39.30;;;;;;5041894;28;20077;-60
2022/03/09 09:52:33;;;;;;;8.73;7.72;;;14.50;39.20;;;;;;5047925;28;20073;-60
2022/03/09 09:55:02;;;;;;;9.48;7.57;;;14.50;39.70;;;;;;5044557;28;20067;-60
2022/03/09 09:57:30;;;;;;;9.40;7.70;;;14.70;40.30;;;;;;5046496;28;20401;-60
2022/03/09 09:59:58;;;;;;;10.45;8.13;;;15.20;40.10;;;;;;5048190;28;20055;-60
2022/03/09 10:02:24;;;;;;;8.30;7.32;;;15.40;39.70;;;;;;5049812;28;20055;-60
2022/03/09 10:04:51;;;;;;;8.35;7.07;;;15.50;39.50;;;;;;5048933;28;20052;-60
2022/03/09 10:07:18;;;;;;;8.48;7.68;;;15.30;39.20;;;;;;5048113;28;20055;-60
2022/03/09 10:09:44;;;;;;;10.63;7.85;;;15.50;38.30;;;;;;5028870;28;20056;-60
2022/03/09 10:12:13;;;;;;;8.90;7.68;;;15.70;38.20;;;;;;5043837;28;20045;-60
2022/03/09 10:14:43;;;;;;;9.15;8.07;;;16.00;38.20;;;;;;5047475;28;20189;-60
2022/03/09 10:17:13;;;;;;;10.85;7.10;;;15.80;37.50;;;;;;5043164;28;20130;-59
2022/03/09 10:19:50;;;;;;;10.88;8.05;;;15.90;38.30;;;;;;5047762;28;20076;-60
2022/03/09 10:22:34;;;;;;;8.57;7.57;;;16.40;37.60;;;;;;5021280;28;20049;-60
2022/03/09 10:25:17;;;;;;;9.48;7.28;;;16.60;35.90;;;;;;5038428;28;20069;-60
2022/03/09 10:27:52;;;;;;;11.30;8.15;;;16.90;35.50;;;;;;5048067;28;20127;-60
2022/03/09 10:30:24;;;;;;;10.68;8.20;;;17.30;35.00;;;;;;5046018;28;20048;-60
2022/03/09 10:32:56;;;;;;;11.13;7.88;;;17.30;35.20;;;;;;5043548;28;20569;-60
2022/03/09 10:35:31;;;;;;;10.07;7.80;;;17.20;35.20;;;;;;5057586;28;20087;-60
2022/03/09 10:38:06;;;;;;;8.50;7.60;;;17.20;35.20;;;;;;5045099;28;20053;-60
2022/03/09 10:40:45;;;;;;;10.10;8.20;;;17.10;35.40;;;;;;5045485;28;20049;-60
2022/03/09 10:43:12;;;;;;;10.32;7.95;;;17.20;34.20;;;;;;5044581;28;20048;-59
2022/03/09 10:46:02;;;;;;;11.15;7.93;;;17.30;34.50;;;;;;5040465;28;20145;-60
2022/03/09 10:48:57;;;;;;;9.65;8.00;;;17.60;35.10;;;;;;5040538;28;20052;-60
2022/03/09 10:51:35;;;;;;;9.15;8.13;;;17.70;33.70;;;;;;5040991;28;20041;-58
2022/03/09 10:54:29;;;;;;;9.48;8.48;;;18.20;34.50;;;;;;5042275;28;20055;-59
2022/03/09 10:57:10;;;;;;;13.00;7.53;;;18.10;33.10;;;;;;5041813;28;20049;-59
2022/03/09 10:59:51;;;;;;;8.80;7.90;;;18.30;32.80;;;;;;5030274;28;20037;-59
2022/03/09 11:02:19;;;;;;;9.50;8.43;;;18.30;33.00;;;;;;5043852;28;20970;-59
2022/03/09 11:05:06;;;;;;;9.18;7.53;;;17.90;33.20;;;;;;5047508;28;20088;-59
2022/03/09 11:07:38;;;;;;;9.77;8.52;;;18.40;32.10;;;;;;5044688;28;20550;-60
2022/03/09 11:10:08;;;;;;;9.52;8.05;;;18.10;32.80;;;;;;5038181;28;20076;-60
2022/03/09 11:12:36;;;;;;;11.50;8.38;;;18.40;33.10;;;;;;5044573;28;20094;-59
2022/03/09 11:15:02;;;;;;;10.38;7.90;;;18.50;32.80;;;;;;5045730;28;20793;-59
2022/03/09 11:17:29;;;;;;;9.43;8.10;;;18.80;32.60;;;;;;5047671;28;20491;-59
2022/03/09 11:19:55;;;;;;;10.38;8.45;;;18.90;32.70;;;;;;5055487;28;20041;-60
2022/03/09 11:22:21;;;;;;;9.60;8.55;;;18.80;32.10;;;;;;5045434;28;20384;-59
2022/03/09 11:24:48;;;;;;;12.60;8.50;;;18.70;32.30;;;;;;5046447;28;20055;-59
2022/03/09 11:27:15;;;;;;;10.40;8.43;;;18.90;32.30;;;;;;5042013;28;20124;-59
2022/03/09 11:29:42;;;;;;;11.07;8.82;;;18.80;31.70;;;;;;5028928;28;20341;-59
2022/03/09 11:32:14;;;;;;;11.45;9.18;;;19.30;32.40;;;;;;5047172;28;20067;-59
2022/03/09 11:34:45;;;;;;;9.85;8.35;;;19.40;31.90;;;;;;5042600;28;20160;-60
2022/03/09 11:37:12;;;;;;;;;;;19.90;30.80;;;;;;5045445;28;20056;-60
2022/03/09 11:39:41;;;;;;;10.50;8.25;;;19.40;29.90;;;;;;5044338;28;19917;-59
2022/03/09 11:42:28;;;;;;;10.45;8.60;;;19.30;30.90;;;;;;5041292;28;20415;-59
2022/03/09 11:45:16;;;;;;;14.00;12.50;;;19.30;31.20;;;;;;5042795;28;20056;-60
2022/03/09 11:48:03;;;;;;;12.77;8.95;;;19.60;31.00;;;;;;5038208;28;20040;-61
2022/03/09 11:50:33;;;;;;;9.85;8.85;;;19.90;30.30;;;;;;5043341;28;20055;-61
2022/03/09 11:53:08;;;;;;;11.05;8.63;;;19.10;30.80;;;;;;5038744;28;20654;-60
2022/03/09 11:55:35;;;;;;;11.55;8.45;;;19.50;30.30;;;;;;5042701;28;20124;-61
2022/03/09 11:58:13;;;;;;;10.80;8.57;;;19.50;31.50;;;;;;5044484;28;20714;-61
2022/03/09 12:01:00;;;;;;;10.05;8.43;;;19.40;30.70;;;;;;5042612;28;20489;-61
2022/03/09 12:03:40;;;;;;;9.35;8.25;;;19.50;31.10;;;;;;5045531;28;20083;-61
2022/03/09 12:06:42;;;;;;;11.10;8.65;;;19.60;31.40;;;;;;5044648;28;20145;-58
2022/03/09 12:09:09;;;;;;;;;;;20.10;31.10;;;;;;5043550;28;20183;-58
2022/03/09 12:12:08;;;;;;;9.60;8.50;;;19.80;31.50;;;;;;5042722;28;19959;-57
2022/03/09 12:15:00;;;;;;;9.13;8.13;;;19.90;29.80;;;;;;5024292;28;20459;-57
2022/03/09 12:17:52;;;;;;;10.32;8.77;;;19.90;31.20;;;;;;5023186;28;20069;-58
2022/03/09 12:20:31;;;;;;;11.30;8.80;;;19.90;29.70;;;;;;5033689;28;20111;-56
2022/03/09 12:23:00;;;;;;;9.63;8.63;;;19.60;30.20;;;;;;5044985;28;20049;-55
2022/03/09 12:25:37;;;;;;;11.13;8.35;;;19.20;30.00;;;;;;5033711;28;20155;-55
2022/03/09 12:28:25;;;;;;;9.60;8.63;;;19.60;29.20;;;;;;5042085;28;20037;-56
2022/03/09 12:31:07;;;;;;;10.50;8.70;;;19.30;30.10;;;;;;5056383;28;20088;-56
2022/03/09 12:33:35;;;;;;;12.13;8.85;;;19.30;29.70;;;;;;5045554;28;20111;-55
2022/03/09 12:36:06;;;;;;;9.77;8.60;;;19.00;29.90;;;;;;5045390;28;20056;-56
2022/03/09 12:38:38;;;;;;;11.25;8.85;;;19.00;29.90;;;;;;5027980;28;20424;-56
2022/03/09 12:41:05;;;;;;;10.80;9.45;;;19.10;29.50;;;;;;5037498;28;20132;-55
2022/03/09 12:44:02;;;;;;;10.80;9.70;;;19.00;30.00;;;;;;5045882;28;20598;-56
2022/03/09 12:46:29;;;;;;;10.10;8.88;;;19.20;29.60;;;;;;5038004;28;20124;-56
2022/03/09 12:49:10;;;;;;;10.98;9.43;;;19.90;30.40;;;;;;5045987;28;20099;-56
2022/03/09 12:51:38;;;;;;;10.93;9.05;;;19.90;30.00;;;;;;5045963;28;20405;-56
2022/03/09 12:54:05;;;;;;;10.68;9.18;;;20.20;30.10;;;;;;5029261;28;20064;-56
2022/03/09 12:56:31;;;;;;;12.80;9.18;;;20.10;29.70;;;;;;5010511;28;20045;-56